Time;durP1;ratioP1;P1;durP2;ratioP2;P2;SDS_P1;SDS_P2;PMS_P1;PMS_P2;Temp;Humidity;BMP_temperature;BMP_pressure;BME280_temperature;BME280_humidity;BME280_pressure;Samples;Min_cycle;Max_cycle;Signal;HPM_P1;HPM_P2
2022/07/27 00:01:02;;;;;;;5.82;1.13;;;;;;;13.55;80.53;101439.81;4972763;28;20209;-53
2022/07/27 00:03:28;;;;;;;6.18;1.50;;;;;;;13.60;80.78;101436.00;4972391;28;20622;-53
2022/07/27 00:05:54;;;;;;;9.73;1.27;;;;;;;13.58;80.35;101435.19;4972820;28;20197;-50
2022/07/27 00:08:19;;;;;;;6.38;1.10;;;;;;;13.62;80.12;101429.66;4972500;28;20190;-50
2022/07/27 00:10:45;;;;;;;6.90;1.20;;;;;;;13.51;80.07;101427.41;4972636;28;20284;-50
2022/07/27 00:13:11;;;;;;;11.23;1.77;;;;;;;13.51;79.74;101433.69;4971927;28;20554;-52
2022/07/27 00:15:36;;;;;;;4.53;1.13;;;;;;;13.53;79.88;101434.47;4972713;28;20253;-50
2022/07/27 00:18:02;;;;;;;6.57;1.52;;;;;;;13.63;79.61;101437.69;4972201;28;20258;-51
2022/07/27 00:20:29;;;;;;;6.10;1.30;;;;;;;13.58;79.65;101434.31;4972437;28;20198;-49
2022/07/27 00:22:55;;;;;;;5.60;1.33;;;;;;;13.62;79.06;101429.66;4972322;28;20175;-52
2022/07/27 00:25:21;;;;;;;6.07;0.95;;;;;;;13.61;78.94;101439.56;4970722;28;20178;-50
2022/07/27 00:27:47;;;;;;;6.25;1.30;;;;;;;13.59;78.44;101431.53;4971741;28;20217;-48
2022/07/27 00:30:13;;;;;;;4.28;1.48;;;;;;;13.62;77.85;101430.53;4972309;28;20193;-50
2022/07/27 00:32:38;;;;;;;8.60;1.30;;;;;;;13.77;77.36;101426.34;4972107;28;20250;-47
2022/07/27 00:35:04;;;;;;;5.80;1.55;;;;;;;13.64;77.90;101419.72;4972173;28;20177;-47
2022/07/27 00:37:30;;;;;;;7.13;1.30;;;;;;;13.38;78.06;101416.25;4972316;28;20237;-47
2022/07/27 00:39:55;;;;;;;5.70;1.58;;;;;;;13.47;78.41;101418.59;4972650;28;20270;-48
2022/07/27 00:42:26;;;;;;;5.60;1.67;;;;;;;13.32;78.45;101411.16;4972130;28;20205;-49
2022/07/27 00:44:53;;;;;;;5.55;1.58;;;;;;;13.41;78.48;101417.97;4972115;28;20166;-48
2022/07/27 00:47:19;;;;;;;8.23;1.30;;;;;;;13.22;78.40;101423.19;4971669;28;20221;-49
2022/07/27 00:49:45;;;;;;;9.32;1.65;;;;;;;13.31;78.37;101422.84;4972132;28;20185;-48
2022/07/27 00:52:11;;;;;;;8.50;1.80;;;;;;;13.37;78.68;101427.97;4971970;28;20166;-49
2022/07/27 00:54:37;;;;;;;2.70;1.20;;;;;;;13.41;78.08;101429.63;4972062;28;20190;-48
2022/07/27 00:57:04;;;;;;;6.90;1.33;;;;;;;13.34;78.32;101414.66;4972105;28;20265;-47
2022/07/27 00:59:30;;;;;;;5.05;1.20;;;;;;;13.38;79.14;101418.94;4972249;28;20193;-49
2022/07/27 01:01:56;;;;;;;6.68;1.60;;;;;;;13.26;79.23;101430.19;4971886;28;20221;-47
2022/07/27 01:04:21;;;;;;;3.97;1.20;;;;;;;13.40;79.48;101422.47;4971744;28;20261;-48
2022/07/27 01:06:47;;;;;;;5.40;1.52;;;;;;;13.27;79.98;101423.84;4971983;28;20310;-47
2022/07/27 01:11:57;;;;;;;6.10;1.35;;;;;;;13.31;80.74;101417.44;4972201;28;20209;-47
2022/07/27 01:14:23;;;;;;;8.57;1.42;;;;;;;13.22;81.17;101432.13;4971765;28;20200;-49
2022/07/27 01:16:50;;;;;;;6.07;1.27;;;;;;;13.36;81.03;101428.94;4971555;28;20166;-49
2022/07/27 01:19:16;;;;;;;10.52;1.50;;;;;;;13.17;81.85;101429.63;4971721;28;20172;-48
2022/07/27 01:21:42;;;;;;;10.50;1.52;;;;;;;13.15;81.86;101428.78;4971476;28;20198;-47
2022/07/27 01:24:08;;;;;;;9.80;1.50;;;;;;;13.23;81.81;101431.19;4971712;28;20177;-47
2022/07/27 01:26:35;;;;;;;4.10;1.42;;;;;;;13.29;80.91;101430.09;4973523;28;20189;-48
2022/07/27 01:29:00;;;;;;;7.68;1.52;;;;;;;13.31;81.28;101433.59;4991150;28;20680;-48
2022/07/27 01:31:27;;;;;;;4.63;1.23;;;;;;;13.42;81.40;101425.97;4991000;28;20191;-47
2022/07/27 01:33:52;;;;;;;8.85;1.85;;;;;;;13.33;81.46;101424.53;4990666;28;20166;-47
2022/07/27 01:36:18;;;;;;;7.00;1.48;;;;;;;13.29;82.07;101425.59;4991046;28;20176;-48
2022/07/27 01:38:44;;;;;;;5.93;1.48;;;;;;;13.25;81.93;101420.34;4990595;28;20180;-50
2022/07/27 01:41:10;;;;;;;6.10;1.50;;;;;;;13.30;81.98;101423.78;4989981;28;20205;-49
2022/07/27 01:43:35;;;;;;;7.75;1.40;;;;;;;13.22;82.09;101418.66;4989599;28;20156;-47
2022/07/27 01:46:01;;;;;;;3.33;1.33;;;;;;;13.18;82.42;101417.03;4987159;28;20271;-47
2022/07/27 01:48:26;;;;;;;9.07;1.58;;;;;;;13.14;82.74;101415.41;4990589;28;20193;-48
2022/07/27 01:50:52;;;;;;;9.15;1.75;;;;;;;13.13;83.01;101416.34;4990459;28;20255;-50
2022/07/27 01:53:19;;;;;;;6.68;1.40;;;;;;;13.14;82.92;101423.47;4990056;28;20181;-48
2022/07/27 01:55:45;;;;;;;7.00;1.60;;;;;;;13.10;83.29;101411.09;4990356;28;20215;-48
2022/07/27 01:58:11;;;;;;;4.63;1.27;;;;;;;13.24;82.70;101407.84;4990642;28;20228;-48
2022/07/27 02:00:36;;;;;;;5.55;1.50;;;;;;;13.28;82.75;101412.19;4990309;28;20189;-47
2022/07/27 02:03:04;;;;;;;9.70;1.40;;;;;;;13.21;82.67;101416.94;4990006;28;20296;-47
2022/07/27 02:05:29;;;;;;;12.05;2.15;;;;;;;13.10;82.90;101411.97;4990603;28;20252;-47
2022/07/27 02:07:55;;;;;;;9.48;1.75;;;;;;;13.14;82.76;101412.69;4990225;28;20245;-48
2022/07/27 02:10:20;;;;;;;6.88;1.80;;;;;;;13.17;82.64;101417.97;4989091;28;20619;-47
2022/07/27 02:12:46;;;;;;;10.95;1.67;;;;;;;13.17;82.70;101420.69;4990277;28;20182;-48
2022/07/27 02:15:15;;;;;;;10.85;1.63;;;;;;;13.13;82.75;101419.03;4989854;28;20168;-47
2022/07/27 02:17:41;;;;;;;9.90;1.55;;;;;;;13.06;83.26;101404.94;4989985;28;20173;-47
2022/07/27 02:20:08;;;;;;;10.18;1.33;;;;;;;13.01;83.90;101406.97;4990392;28;20194;-48
2022/07/27 02:22:34;;;;;;;8.30;1.50;;;;;;;12.89;84.04;101402.91;4988859;28;20169;-49
2022/07/27 02:25:01;;;;;;;9.52;1.92;;;;;;;12.96;84.39;101406.25;4989601;28;20166;-46
2022/07/27 02:27:27;;;;;;;4.57;1.40;;;;;;;12.94;84.11;101400.03;4979853;28;20202;-46
2022/07/27 02:29:52;;;;;;;5.90;1.70;;;;;;;12.92;84.07;101407.28;4970390;28;20643;-48
2022/07/27 02:32:19;;;;;;;11.38;1.60;;;;;;;12.80;84.89;101405.97;4970552;28;20248;-46
2022/07/27 02:34:45;;;;;;;11.07;1.70;;;;;;;12.79;84.97;101404.22;4970229;28;20240;-46
2022/07/27 02:37:11;;;;;;;3.63;1.10;;;;;;;12.95;85.11;101402.69;4970699;28;20176;-46
2022/07/27 02:39:37;;;;;;;9.70;2.38;;;;;;;12.90;84.65;101406.47;4970561;28;20178;-49
2022/07/27 02:42:02;;;;;;;9.10;1.63;;;;;;;12.88;84.84;101402.97;4970354;28;20174;-46
2022/07/27 02:44:28;;;;;;;7.13;1.52;;;;;;;12.88;84.62;101403.88;4970048;28;20174;-47
2022/07/27 02:46:54;;;;;;;7.13;1.55;;;;;;;12.76;84.69;101399.81;4970438;28;20170;-46
2022/07/27 02:49:19;;;;;;;10.20;1.88;;;;;;;12.65;85.12;101399.34;4970680;28;20210;-45
2022/07/27 02:51:48;;;;;;;6.22;1.40;;;;;;;12.69;85.34;101401.00;4972264;28;20670;-48
2022/07/27 02:54:14;;;;;;;7.55;1.60;;;;;;;12.65;85.34;101395.78;4973335;28;20170;-46
2022/07/27 02:56:39;;;;;;;6.75;1.50;;;;;;;12.65;85.58;101403.84;4974201;28;20181;-48
2022/07/27 02:59:04;;;;;;;6.47;1.70;;;;;;;12.69;85.62;101395.63;4973972;28;20162;-48
2022/07/27 03:01:30;;;;;;;5.53;1.40;;;;;;;12.65;85.64;101395.78;4974100;28;20205;-47
2022/07/27 03:03:55;;;;;;;7.68;1.38;;;;;;;12.63;85.81;101398.53;4973781;28;20642;-45
2022/07/27 03:06:21;;;;;;;8.70;1.40;;;;;;;12.61;85.97;101395.03;4974009;28;20690;-46
2022/07/27 03:08:46;;;;;;;6.32;1.77;;;;;;;12.63;85.88;101401.22;4973922;28;20198;-46
2022/07/27 03:11:14;;;;;;;7.90;1.98;;;;;;;12.67;85.98;101397.47;4973946;28;20545;-47
2022/07/27 03:13:40;;;;;;;4.00;1.20;;;;;;;12.71;86.04;101399.13;4973569;28;20294;-46
2022/07/27 03:16:06;;;;;;;5.93;1.70;;;;;;;12.83;85.84;101394.22;4973788;28;20197;-47
2022/07/27 03:18:31;;;;;;;9.77;1.77;;;;;;;12.76;85.45;101401.63;4973606;28;20169;-49
2022/07/27 03:20:57;;;;;;;9.93;2.00;;;;;;;12.86;85.33;101397.66;4973168;28;20202;-46
2022/07/27 03:23:23;;;;;;;7.45;1.30;;;;;;;12.76;84.89;101410.56;4973455;28;20270;-47
2022/07/27 03:25:48;;;;;;;7.55;1.65;;;;;;;12.78;85.38;101403.31;4973295;28;20182;-48
2022/07/27 03:28:14;;;;;;;9.07;1.80;;;;;;;12.84;85.12;101412.13;4973150;28;20206;-48
2022/07/27 03:30:40;;;;;;;6.72;1.30;;;;;;;12.86;84.38;101402.19;4973260;28;20209;-47
2022/07/27 03:33:05;;;;;;;6.53;1.67;;;;;;;12.83;84.30;101413.91;4973060;28;20170;-48
2022/07/27 03:35:31;;;;;;;8.55;1.75;;;;;;;12.89;83.98;101415.50;4973512;28;20255;-47
2022/07/27 03:37:57;;;;;;;8.50;1.98;;;;;;;12.92;83.50;101418.06;4973061;28;20237;-47
2022/07/27 03:40:22;;;;;;;4.00;1.35;;;;;;;12.80;83.19;101422.09;4973215;28;20198;-49
2022/07/27 03:42:48;;;;;;;6.38;1.77;;;;;;;12.82;83.47;101425.59;4973205;28;20174;-49
2022/07/27 03:45:13;;;;;;;8.40;2.15;;;;;;;12.84;83.16;101433.63;4972910;28;20680;-47
2022/07/27 03:47:39;;;;;;;8.82;1.70;;;;;;;12.84;82.90;101431.81;4984316;28;20205;-48
2022/07/27 03:50:05;;;;;;;6.75;1.50;;;;;;;12.81;83.35;101437.28;4972877;28;20217;-48
2022/07/27 03:52:31;;;;;;;7.10;1.55;;;;;;;12.87;83.31;101434.38;4973046;28;20178;-49
2022/07/27 03:54:56;;;;;;;6.72;1.55;;;;;;;12.94;82.55;101435.00;4979902;28;20548;-48
2022/07/27 03:57:23;;;;;;;6.13;1.33;;;;;;;12.83;82.88;101429.16;4988042;28;20188;-48
2022/07/27 03:59:49;;;;;;;11.00;1.52;;;;;;;12.96;82.41;101433.13;4992286;28;20166;-50
2022/07/27 04:02:14;;;;;;;8.57;1.40;;;;;;;12.96;82.20;101422.38;4991962;28;20192;-47
2022/07/27 04:04:40;;;;;;;9.73;1.92;;;;;;;13.12;82.06;101426.25;4992235;28;20170;-49
2022/07/27 04:07:06;;;;;;;7.25;1.40;;;;;;;12.94;81.95;101421.56;4992114;28;20248;-50
2022/07/27 04:09:33;;;;;;;4.75;1.27;;;;;;;13.03;81.95;101423.00;4992389;28;20197;-48
2022/07/27 04:11:59;;;;;;;5.22;1.55;;;;;;;13.07;82.04;101417.44;4992171;28;20291;-49
2022/07/27 04:14:24;;;;;;;9.25;1.50;;;;;;;13.03;81.60;101418.53;4992359;28;20248;-49
2022/07/27 04:16:49;;;;;;;9.38;1.52;;;;;;;13.07;81.59;101419.28;4992897;28;20204;-49
2022/07/27 04:19:15;;;;;;;7.10;1.48;;;;;;;13.13;81.39;101425.28;4992493;28;20621;-48
2022/07/27 04:21:40;;;;;;;6.82;1.58;;;;;;;13.02;81.19;101410.50;4991427;28;20193;-48
2022/07/27 04:24:06;;;;;;;7.65;1.55;;;;;;;13.11;81.41;101415.53;4992075;28;20264;-50
2022/07/27 04:26:32;;;;;;;10.75;1.90;;;;;;;13.04;81.62;101416.72;4988192;28;20562;-49
2022/07/27 04:28:57;;;;;;;7.38;1.65;;;;;;;13.07;82.14;101420.13;4973029;28;20202;-46
2022/07/27 04:31:22;;;;;;;6.85;1.50;;;;;;;13.14;82.03;101416.28;4972616;28;20201;-48
2022/07/27 04:33:48;;;;;;;9.68;1.70;;;;;;;13.17;82.17;101424.22;4955257;28;20170;-47
2022/07/27 04:36:13;;;;;;;7.90;1.83;;;;;;;13.10;82.26;101428.13;4972425;28;20236;-46
2022/07/27 04:38:39;;;;;;;7.75;1.33;;;;;;;13.10;82.59;101416.47;4971321;28;20162;-49
2022/07/27 04:41:05;;;;;;;5.35;1.50;;;;;;;13.13;82.49;101419.03;4972537;28;20208;-47
2022/07/27 04:43:31;;;;;;;5.57;2.00;;;;;;;13.17;82.62;101413.47;4971077;28;20170;-47
2022/07/27 04:45:56;;;;;;;7.35;1.70;;;;;;;13.09;83.04;101422.78;4972577;28;20221;-48
2022/07/27 04:48:22;;;;;;;7.80;1.67;;;;;;;13.08;83.26;101421.03;4972207;28;20204;-49
2022/07/27 04:50:47;;;;;;;5.55;1.27;;;;;;;13.21;83.03;101425.00;4972329;28;20346;-48
2022/07/27 04:53:13;;;;;;;9.07;2.00;;;;;;;13.25;83.20;101426.63;4970784;28;20208;-48
2022/07/27 04:55:43;;;;;;;7.82;1.83;;;;;;;13.40;82.80;101425.16;4972372;28;20729;-49
2022/07/27 04:58:09;;;;;;;5.85;1.40;;;;;;;13.52;82.34;101432.75;4972176;28;20162;-46
2022/07/27 05:00:34;;;;;;;6.53;1.45;;;;;;;13.60;81.95;101435.13;4972137;28;20202;-49
2022/07/27 05:03:00;;;;;;;5.10;1.33;;;;;;;13.64;81.75;101436.72;4972447;28;20201;-49
2022/07/27 05:05:25;;;;;;;5.97;1.70;;;;;;;13.80;81.49;101432.47;4972268;28;20166;-48
2022/07/27 05:07:51;;;;;;;8.05;2.10;;;;;;;13.77;81.13;101427.22;4972075;28;20737;-48
2022/07/27 05:10:17;;;;;;;5.22;1.70;;;;;;;13.83;80.88;101419.81;4971957;28;20535;-50
2022/07/27 05:12:43;;;;;;;8.02;1.88;;;;;;;13.67;81.16;101419.59;4970762;28;20178;-49
2022/07/27 05:15:09;;;;;;;9.80;1.70;;;;;;;13.75;81.40;101422.81;4971434;28;20216;-50
2022/07/27 05:17:34;;;;;;;7.50;1.40;;;;;;;13.77;80.93;101426.34;4971850;28;20166;-48
2022/07/27 05:20:00;;;;;;;11.07;1.52;;;;;;;13.65;80.66;101425.03;4971953;28;20213;-50
2022/07/27 05:22:25;;;;;;;8.60;1.85;;;;;;;13.69;80.78;101431.19;4971711;28;20225;-48
2022/07/27 05:24:51;;;;;;;10.02;1.67;;;;;;;13.72;80.95;101431.03;4971709;28;20259;-49
2022/07/27 05:27:16;;;;;;;5.90;1.40;;;;;;;13.71;80.42;101435.56;4979983;28;20209;-48
2022/07/27 05:29:42;;;;;;;6.53;1.30;;;;;;;13.80;79.40;101437.00;4990171;28;20182;-50
2022/07/27 05:32:08;;;;;;;9.95;1.80;;;;;;;13.84;79.03;101433.25;4991325;28;20193;-48
2022/07/27 05:34:33;;;;;;;12.02;1.77;;;;;;;13.87;78.53;101433.09;4990790;28;20165;-48
2022/07/27 05:36:59;;;;;;;8.15;1.63;;;;;;;13.99;77.88;101440.66;4991296;28;20177;-48
2022/07/27 05:39:25;;;;;;;9.43;2.25;;;;;;;14.05;77.44;101435.94;4990855;28;20172;-49
2022/07/27 05:41:50;;;;;;;7.30;1.77;;;;;;;14.09;76.98;101437.56;4991208;28;20205;-47
2022/07/27 05:44:15;;;;;;;9.32;1.45;;;;;;;14.04;76.83;101442.25;4990877;28;20161;-49
2022/07/27 05:46:41;;;;;;;7.97;2.17;;;;;;;14.12;76.68;101446.38;4990994;28;20351;-47
2022/07/27 05:49:06;;;;;;;6.78;1.52;;;;;;;14.20;76.04;101436.16;4990953;28;20189;-47
2022/07/27 05:51:32;;;;;;;6.00;1.30;;;;;;;14.27;75.22;101449.34;4989774;28;20208;-49
2022/07/27 05:53:58;;;;;;;8.50;1.33;;;;;;;14.28;74.85;101440.31;4989636;28;20685;-48
2022/07/27 05:56:24;;;;;;;8.18;1.45;;;;;;;14.33;74.05;101449.09;4989345;28;20173;-48
2022/07/27 05:58:49;;;;;;;5.85;1.30;;;;;;;14.40;74.77;101446.03;4986521;28;20284;-49
2022/07/27 06:01:15;;;;;;;7.15;1.27;;;;;;;14.38;74.62;101452.44;4974786;28;20297;-50
2022/07/27 06:03:41;;;;;;;8.32;1.40;;;;;;;14.33;74.04;101452.66;4971387;28;20177;-50
2022/07/27 06:08:50;;;;;;;9.38;1.63;;;;;;;14.22;74.01;101454.94;4970979;28;20206;-50
2022/07/27 06:11:16;;;;;;;9.82;1.52;;;;;;;14.30;74.57;101446.50;4971363;28;20190;-49
2022/07/27 06:13:41;;;;;;;7.15;1.50;;;;;;;14.45;74.49;101453.94;4969841;28;20737;-47
2022/07/27 06:16:08;;;;;;;14.45;2.05;;;;;;;14.46;74.36;101457.53;4972105;28;20556;-48
2022/07/27 06:18:33;;;;;;;11.93;2.03;;;;;;;14.50;74.72;101461.84;4990531;28;20228;-49
2022/07/27 06:21:00;;;;;;;9.50;1.85;;;;;;;14.42;73.44;101467.56;4988424;28;20193;-48
2022/07/27 06:23:26;;;;;;;10.48;1.80;;;;;;;14.46;72.88;101462.91;4990558;28;20218;-49
2022/07/27 06:25:52;;;;;;;6.97;1.50;;;;;;;14.59;72.56;101461.47;4989974;28;20193;-50
2022/07/27 06:28:18;;;;;;;6.20;1.90;;;;;;;14.77;72.91;101466.00;4988437;28;20334;-50
2022/07/27 06:30:44;;;;;;;6.00;1.58;;;;;;;14.74;73.02;101466.16;4974798;28;20636;-50
2022/07/27 06:33:10;;;;;;;9.23;1.85;;;;;;;14.89;71.91;101464.59;4991887;28;20236;-47
2022/07/27 06:35:35;;;;;;;10.15;1.50;;;;;;;14.96;72.36;101468.75;4993578;28;20166;-48
2022/07/27 06:38:01;;;;;;;5.97;1.50;;;;;;;15.19;72.36;101466.78;4993905;28;20228;-48
2022/07/27 06:40:27;;;;;;;9.10;1.80;;;;;;;15.00;71.20;101467.66;4993854;28;20276;-49
2022/07/27 06:42:53;;;;;;;7.47;2.25;;;;;;;15.09;70.42;101471.75;4994094;28;20577;-47
2022/07/27 06:45:20;;;;;;;9.02;1.92;;;;;;;15.19;70.87;101469.47;4993907;28;20594;-49
2022/07/27 06:47:47;;;;;;;4.70;1.38;;;;;;;15.16;71.22;101480.44;4993907;28;20272;-48
2022/07/27 06:50:12;;;;;;;7.95;1.20;;;;;;;15.03;70.16;101472.03;4993487;28;20217;-48
2022/07/27 06:52:38;;;;;;;8.77;1.85;;;;;;;15.08;69.70;101479.91;4993750;28;20208;-48
2022/07/27 06:55:04;;;;;;;8.18;1.48;;;;;;;15.13;68.67;101478.75;4993306;28;20178;-46
2022/07/27 06:57:29;;;;;;;7.32;1.50;;;;;;;15.08;69.46;101463.72;4993845;28;20633;-46
2022/07/27 06:59:55;;;;;;;9.48;1.55;;;;;;;15.32;68.50;101475.16;4991510;28;20181;-48
2022/07/27 07:02:20;;;;;;;5.88;1.55;;;;;;;15.23;68.71;101461.16;4989719;28;20173;-47
2022/07/27 07:04:46;;;;;;;7.25;1.20;;;;;;;15.43;67.71;101476.41;4993597;28;20540;-46
2022/07/27 07:07:11;;;;;;;6.07;1.50;;;;;;;15.57;67.41;101466.78;4992493;28;20243;-47
2022/07/27 07:09:37;;;;;;;7.03;1.90;;;;;;;15.41;67.30;101477.44;4992206;28;20296;-48
2022/07/27 07:12:02;;;;;;;7.88;1.50;;;;;;;15.51;68.63;101486.84;4990388;28;20197;-48
2022/07/27 07:14:28;;;;;;;7.97;1.15;;;;;;;15.46;69.29;101483.50;4992392;28;20232;-46
2022/07/27 07:16:53;;;;;;;6.05;1.30;;;;;;;15.45;67.87;101487.13;4993774;28;20162;-49
2022/07/27 07:19:19;;;;;;;6.35;1.52;;;;;;;15.38;68.20;101482.97;4991921;28;20169;-47
2022/07/27 07:21:45;;;;;;;8.57;1.73;;;;;;;15.41;68.72;101488.22;4993096;28;20681;-47
2022/07/27 07:24:10;;;;;;;5.93;1.73;;;;;;;15.37;69.05;101492.03;4992492;28;20605;-46
2022/07/27 07:26:38;;;;;;;6.00;1.20;;;;;;;15.41;69.52;101491.81;4976719;28;20181;-50
2022/07/27 07:29:03;;;;;;;5.25;1.50;;;;;;;15.41;69.07;101482.81;4993006;28;20337;-48
2022/07/27 07:31:29;;;;;;;5.35;1.60;;;;;;;15.55;69.77;101495.69;4989493;28;20185;-48
2022/07/27 07:33:55;;;;;;;6.90;1.50;;;;;;;15.54;68.09;101493.91;4988986;28;20256;-46
2022/07/27 07:36:20;;;;;;;4.32;1.15;;;;;;;15.49;68.59;101491.44;4992866;28;20185;-49
2022/07/27 07:38:46;;;;;;;7.10;1.75;;;;;;;15.43;68.37;101492.59;4991940;28;20536;-48
2022/07/27 07:41:11;;;;;;;7.18;1.80;;;;;;;16.14;68.08;101494.56;4992789;28;20230;-45
2022/07/27 07:43:39;;;;;;;5.63;1.58;;;;;;;16.24;65.86;101494.97;4992494;28;20195;-48
2022/07/27 07:46:05;;;;;;;7.85;1.10;;;;;;;16.02;65.74;101495.19;4992957;28;20169;-48
2022/07/27 07:48:30;;;;;;;7.35;1.70;;;;;;;16.12;64.86;101479.38;4993013;28;20216;-48
2022/07/27 07:50:56;;;;;;;7.97;1.55;;;;;;;15.98;65.11;101493.59;4992394;28;20639;-48
2022/07/27 07:53:23;;;;;;;7.43;1.73;;;;;;;15.93;64.11;101501.91;4991703;28;20177;-49
2022/07/27 07:55:50;;;;;;;4.95;1.45;;;;;;;15.92;63.39;101488.47;4992466;28;20181;-48
2022/07/27 07:58:15;;;;;;;11.38;1.27;;;;;;;15.93;63.22;101496.50;4992784;28;20158;-50
2022/07/27 08:00:42;;;;;;;7.18;1.63;;;;;;;16.01;62.96;101490.75;4992956;28;20193;-49
2022/07/27 08:03:08;;;;;;;5.35;1.17;;;;;;;16.01;62.34;101490.75;4992153;28;20832;-48
2022/07/27 08:05:33;;;;;;;3.65;0.80;;;;;;;15.85;62.91;101490.59;4992718;28;20175;-47
2022/07/27 08:07:59;;;;;;;4.97;1.30;;;;;;;16.01;64.59;101488.03;4991871;28;20686;-46
2022/07/27 08:10:25;;;;;;;4.63;1.15;;;;;;;15.63;66.04;101494.38;4992269;28;20197;-48
2022/07/27 08:12:53;;;;;;;3.65;1.13;;;;;;;15.53;66.19;101519.19;4992182;28;20284;-49
2022/07/27 08:15:20;;;;;;;4.35;1.30;;;;;;;15.94;65.54;101514.50;4992192;28;20555;-47
2022/07/27 08:17:45;;;;;;;6.65;1.05;;;;;;;15.68;66.20;101512.16;4992457;28;20210;-48
2022/07/27 08:20:13;;;;;;;3.40;1.00;;;;;;;15.58;66.89;101515.31;4992008;28;20685;-48
2022/07/27 08:22:39;;;;;;;4.45;1.00;;;;;;;15.75;67.47;101525.31;4992295;28;20173;-49
2022/07/27 08:25:05;;;;;;;8.77;1.33;;;;;;;15.98;67.11;101532.31;4990576;28;20172;-48
2022/07/27 08:27:30;;;;;;;3.03;0.82;;;;;;;15.94;66.53;101527.13;4991925;28;20189;-50
2022/07/27 08:29:56;;;;;;;4.93;1.20;;;;;;;15.76;67.10;101521.66;4992121;28;20177;-49
2022/07/27 08:32:23;;;;;;;9.65;1.35;;;;;;;15.67;67.66;101535.59;4992044;28;20169;-46
2022/07/27 08:34:49;;;;;;;3.72;1.00;;;;;;;16.09;65.94;101530.88;4991864;28;20261;-49
2022/07/27 08:37:15;;;;;;;6.75;1.50;;;;;;;16.10;66.98;101538.06;4991882;28;20261;-51
2022/07/27 08:39:40;;;;;;;5.13;1.08;;;;;;;16.19;65.99;101532.19;4991850;28;20162;-47
2022/07/27 08:42:08;;;;;;;5.30;1.20;;;;;;;16.02;65.57;101536.59;4991308;28;20182;-47
2022/07/27 08:44:35;;;;;;;3.30;1.40;;;;;;;15.80;66.49;101539.47;4991750;28;20187;-46
2022/07/27 08:47:01;;;;;;;7.30;1.40;;;;;;;16.29;66.59;101536.19;4991814;28;20223;-48
2022/07/27 08:49:28;;;;;;;6.20;1.25;;;;;;;16.21;66.67;101547.38;4990741;28;20213;-48
2022/07/27 08:51:54;;;;;;;4.60;1.27;;;;;;;16.23;66.83;101534.66;4991636;28;20288;-48
2022/07/27 08:54:20;;;;;;;6.57;1.52;;;;;;;16.22;67.42;101534.72;4991259;28;20248;-47
2022/07/27 08:56:46;;;;;;;5.38;1.33;;;;;;;16.16;68.26;101533.22;4991912;28;20166;-46
2022/07/27 08:59:11;;;;;;;4.68;1.20;;;;;;;16.25;67.32;101530.03;4983030;28;20182;-48
2022/07/27 09:01:37;;;;;;;5.38;1.38;;;;;;;16.36;67.39;101544.84;4974910;28;20694;-48
2022/07/27 09:04:03;;;;;;;6.32;1.02;;;;;;;16.39;68.31;101555.50;4971990;28;20217;-47
2022/07/27 09:06:38;;;;;;;11.57;1.83;;;;;;;16.66;67.98;101540.56;4971537;28;20659;-45
2022/07/27 09:09:05;;;;;;;4.72;1.27;;;;;;;17.14;66.03;101534.47;4971805;28;20220;-48
2022/07/27 09:11:31;;;;;;;5.47;1.15;;;;;;;17.15;64.50;101550.63;4972179;28;20190;-49
2022/07/27 09:14:05;;;;;;;7.07;1.45;;;;;;;17.38;64.25;101530.41;4970511;28;20174;-47
2022/07/27 09:16:32;;;;;;;4.18;1.00;;;;;;;17.01;63.07;101543.25;4971069;28;20584;-46
2022/07/27 09:19:00;;;;;;;3.40;1.10;;;;;;;17.15;63.02;101547.06;4971205;28;20244;-47
2022/07/27 09:21:27;;;;;;;8.05;1.42;;;;;;;17.24;63.05;101541.13;4971522;28;20194;-46
2022/07/27 09:24:10;;;;;;;3.50;0.95;;;;;;;17.23;62.90;101542.97;4969376;28;20257;-46
2022/07/27 09:26:37;;;;;;;7.07;1.30;;;;;;;17.27;62.29;101533.72;4970768;28;20253;-48
2022/07/27 09:29:12;;;;;;;4.45;1.10;;;;;;;17.40;62.15;101528.47;4969840;28;20209;-46
2022/07/27 09:31:49;;;;;;;5.75;1.52;;;;;;;18.44;60.77;101535.16;4970539;28;20200;-47
2022/07/27 09:34:29;;;;;;;2.88;1.00;;;;;;;18.44;58.91;101524.31;4970983;28;20184;-47
2022/07/27 09:36:57;;;;;;;4.60;1.08;;;;;;;18.46;58.56;101529.66;4971678;28;20537;-48
2022/07/27 09:39:24;;;;;;;6.30;1.17;;;;;;;17.86;58.65;101536.78;4971312;28;20194;-47
2022/07/27 09:41:55;;;;;;;5.50;0.93;;;;;;;17.75;59.87;101533.75;4971338;28;20237;-47
2022/07/27 09:44:42;;;;;;;6.70;1.50;;;;;;;18.01;60.15;101551.25;4970886;28;20174;-46
2022/07/27 09:47:25;;;;;;;6.82;1.35;;;;;;;18.23;58.82;101529.16;4971295;28;20193;-46
2022/07/27 09:49:52;;;;;;;4.00;1.27;;;;;;;17.92;58.91;101527.38;4970791;28;20649;-47
2022/07/27 09:52:23;;;;;;;6.40;1.42;;;;;;;17.86;58.90;101530.44;4971285;28;20611;-49
2022/07/27 09:54:49;;;;;;;6.20;1.50;;;;;;;17.73;60.07;101537.50;4970502;28;20542;-48
2022/07/27 09:57:17;;;;;;;9.02;1.33;;;;;;;18.24;59.26;101528.22;4971545;28;20198;-46
2022/07/27 09:59:42;;;;;;;6.30;1.60;;;;;;;18.05;59.88;101536.56;4971187;28;20973;-48
2022/07/27 10:02:12;;;;;;;5.93;1.23;;;;;;;18.06;59.99;101532.91;4974989;28;20213;-46
2022/07/27 10:04:37;;;;;;;3.60;0.95;;;;;;;17.43;61.33;101538.28;4974651;28;20206;-47
2022/07/27 10:07:03;;;;;;;6.10;1.38;;;;;;;17.72;60.55;101539.34;4974733;28;20217;-46
2022/07/27 10:09:29;;;;;;;4.80;1.20;;;;;;;17.75;59.48;101539.16;4975020;28;20256;-46
2022/07/27 10:11:56;;;;;;;6.13;1.20;;;;;;;17.99;60.23;101544.16;4974734;28;20244;-47
2022/07/27 10:14:22;;;;;;;7.35;1.23;;;;;;;17.60;61.47;101540.94;4974418;28;20236;-47
2022/07/27 10:16:49;;;;;;;5.38;1.40;;;;;;;17.39;62.51;101540.28;4974748;28;20174;-47
2022/07/27 10:19:20;;;;;;;3.85;1.08;;;;;;;17.12;62.83;101556.22;4974771;28;20182;-47
2022/07/27 10:21:47;;;;;;;6.13;1.50;;;;;;;17.16;64.35;101563.19;4974823;28;20669;-47
2022/07/27 10:24:33;;;;;;;6.03;1.77;;;;;;;17.19;64.05;101554.91;4974035;28;20167;-47
2022/07/27 10:27:16;;;;;;;5.93;1.55;;;;;;;17.11;64.86;101554.47;4981062;28;20181;-48
2022/07/27 10:29:42;;;;;;;8.13;2.03;;;;;;;18.32;61.83;101553.06;4993590;28;20195;-47
2022/07/27 10:32:07;;;;;;;6.10;1.73;;;;;;;18.91;58.48;101558.59;4994397;28;20622;-47
2022/07/27 10:34:38;;;;;;;5.07;1.38;;;;;;;18.24;58.06;101549.06;4993427;28;20554;-48
2022/07/27 10:37:32;;;;;;;8.32;1.60;;;;;;;17.65;59.03;101546.94;4983531;28;20193;-46
2022/07/27 10:42:44;;;;;;;4.47;1.50;;;;;;;17.84;57.44;101545.94;4974352;28;20181;-47
2022/07/27 10:45:15;;;;;;;4.65;1.42;;;;;;;18.17;56.64;101548.53;4973886;28;20194;-48
2022/07/27 10:47:49;;;;;;;8.43;1.65;;;;;;;17.81;57.85;101548.78;4974022;28;20180;-47
2022/07/27 10:50:15;;;;;;;7.15;1.65;;;;;;;18.42;58.28;101547.94;4974182;28;20213;-48
2022/07/27 10:52:41;;;;;;;6.60;1.60;;;;;;;18.23;58.38;101553.56;4974041;28;20189;-46
2022/07/27 10:55:07;;;;;;;5.55;1.50;;;;;;;18.36;56.57;101545.59;4973822;28;20179;-46
2022/07/27 10:57:35;;;;;;;7.57;1.73;;;;;;;18.08;56.29;101558.09;4974438;28;20341;-47
2022/07/27 11:00:08;;;;;;;7.13;1.20;;;;;;;18.17;56.19;101543.13;4973942;28;20193;-48
2022/07/27 11:02:39;;;;;;;6.07;1.50;;;;;;;17.68;58.33;101557.59;4974025;28;20178;-47
2022/07/27 11:05:05;;;;;;;5.95;1.70;;;;;;;17.69;58.79;101555.78;4973397;28;20173;-48
2022/07/27 11:07:30;;;;;;;5.18;1.40;;;;;;;17.77;57.65;101552.63;4974153;28;20170;-48
2022/07/27 11:09:59;;;;;;;2.42;0.80;;;;;;;18.51;55.69;101579.09;4973684;28;20393;-46
2022/07/27 11:12:28;;;;;;;5.97;1.30;;;;;;;18.70;55.22;101554.44;4973078;28;20245;-48
2022/07/27 11:14:55;;;;;;;7.68;1.45;;;;;;;17.92;55.99;101559.91;4973478;28;20169;-48
2022/07/27 11:17:30;;;;;;;3.22;0.95;;;;;;;19.05;54.97;101559.56;4973514;28;20213;-47
2022/07/27 11:19:58;;;;;;;5.53;1.27;;;;;;;19.10;53.27;101554.72;4973715;28;20571;-46
2022/07/27 11:22:50;;;;;;;6.75;1.73;;;;;;;19.78;51.96;101534.97;4973547;28;20171;-46
2022/07/27 11:25:15;;;;;;;6.22;1.75;;;;;;;18.89;54.11;101554.19;4972856;28;20749;-48
2022/07/27 11:27:48;;;;;;;4.00;1.30;;;;;;;18.66;55.01;101547.44;4984845;28;20209;-47
2022/07/27 11:30:27;;;;;;;6.68;1.30;;;;;;;18.40;55.09;101549.88;4992991;28;20248;-47